Mensajes de WXBOT - ver mapa · información · telemetría · el tiempo · sin filtrar · estado · balizas · mensajes · boletines · explorador · moviendo · mi cuenta
Indicativo:
Mostrar:

Cargando message paquetes...

Los mensajes APRS se almacenan 14 dias. Es posible realizar la búsqueda utilizando comodines (*?) tras el prefijo.

2019-06-15 00:21:45 EDT: WXBOT>KG5JGO-2: Forecast available only at United States locations
2019-06-15 00:21:50 EDT: WXBOT>KG5JGO-2: Unable to find location for KG5JGO-2
2019-06-15 00:22:05 EDT: KG5JGO-3>WXBOT: 70070 munday
2019-06-15 00:22:12 EDT: WXBOT>KG5JGO-3: Mimosa Park LA. Tonight,Mostly Clear Low 76
2019-06-15 00:22:15 EDT: KG7WMD-9>WXBOT: kg7wmd
2019-06-15 00:22:25 EDT: WXBOT>KG7WMD-9: Randle WA. Tonight,Partly Cloudy Low 50
2019-06-15 00:22:40 EDT: KG7WMD-9>WXBOT: AA:rec'd
2019-06-15 00:22:50 EDT: KG5JGO-3>WXBOT: 70070 full tomorrow
2019-06-15 00:22:56 EDT: WXBOT>KG5JGO-3: Luling LA. Saturday,A 50 percent chance of showers and thunderstorm
2019-06-15 00:23:02 EDT: WXBOT>KG5JGO-3: s, mainly after 11am. Some of the storms could produce heavy rainfa
2019-06-15 00:23:06 EDT: WXBOT>KG5JGO-3: ll. Mostly cloudy, with a high near 89. Calm wind becoming south a
2019-06-15 00:23:11 EDT: WXBOT>KG5JGO-3: round 5 mph in the morning. New rainfall amounts between 1 and 2 i
2019-06-15 00:23:16 EDT: WXBOT>KG5JGO-3: nches possible.
2019-06-15 02:27:25 EDT: JE1UJQ-10>WXBOT: CWOP
2019-06-15 02:27:31 EDT: WXBOT>JE1UJQ-10: JA1KWV-11 78,wind:calm,997.8mbar,rh:70%,rain:none
2019-06-15 06:30:02 EDT: WA1GOV-10>WXBOT: 02780
2019-06-15 06:30:04 EDT: WXBOT>WA1GOV-10: Sorry, unable to get a forecast for location 41.905/-71.1026
2019-06-15 12:30:02 EDT: WA1GOV-10>WXBOT: 02780
2019-06-15 12:30:11 EDT: WXBOT>WA1GOV-10: Sorry, unable to get a forecast for location 41.905/-71.1026
2019-06-15 15:08:39 EDT: OE6FTE-7>WXBOT: LOWW
2019-06-15 15:08:41 EDT: WXBOT>OE6FTE-7: LOWW 151850Z 15012KT CAVOK 27/20 Q1011 BECMG FM1930 29012KT
2019-06-15 15:09:40 EDT: OE6FTE-7>WXBOT: LOWW
2019-06-15 15:09:42 EDT: WXBOT>OE6FTE-7: LOWW 151850Z 15012KT CAVOK 27/20 Q1011 BECMG FM1930 29012KT
2019-06-15 15:10:41 EDT: OE6FTE-7>WXBOT: LOWW
2019-06-15 15:10:42 EDT: WXBOT>OE6FTE-7: LOWW 151850Z 15012KT CAVOK 27/20 Q1011 BECMG FM1930 29012KT
2019-06-15 15:11:16 EDT: OE6FTE-7>WXBOT: LOWW
2019-06-15 15:11:17 EDT: WXBOT>OE6FTE-7: LOWW 151850Z 15012KT CAVOK 27/20 Q1011 BECMG FM1930 29012KT
2019-06-15 15:12:42 EDT: OE6FTE-7>WXBOT: LOWW
2019-06-15 15:12:43 EDT: WXBOT>OE6FTE-7: LOWW 151850Z 15012KT CAVOK 27/20 Q1011 BECMG FM1930 29012KT
2019-06-15 18:30:02 EDT: WA1GOV-10>WXBOT: 02780
2019-06-15 18:30:05 EDT: WXBOT>WA1GOV-10: Taunton MA. Tonight,Mostly Cloudy then Slight Chance Showers 20% Lo
2019-06-15 18:30:10 EDT: WXBOT>WA1GOV-10: w 63
2019-06-15 19:33:06 EDT: AE4TC-9>WXBOT: wx
2019-06-15 19:33:15 EDT: WXBOT>AE4TC-9: 4 Miles SE Montpelier VA. Tonight,Partly Cloudy Low 62
2019-06-15 19:34:36 EDT: AE4TC-9>WXBOT: wx
2019-06-15 19:34:45 EDT: WXBOT>AE4TC-9: 4 Miles SE Montpelier VA. Tonight,Partly Cloudy Low 62
2019-06-15 19:35:48 EDT: AE4TC-9>WXBOT: wx
2019-06-15 19:35:55 EDT: WXBOT>AE4TC-9: 4 Miles SE Montpelier VA. Tonight,Partly Cloudy Low 62
2019-06-15 19:36:52 EDT: AE4TC-9>WXBOT: wx
2019-06-15 19:36:59 EDT: WXBOT>AE4TC-9: 4 Miles SE Montpelier VA. Tonight,Partly Cloudy Low 62
2019-06-15 20:28:46 EDT: KH6OWL>WXBOT: Kapolei, HI
2019-06-15 20:28:48 EDT: WXBOT>KH6OWL: Ewa Beach HI. High Surf Advisory, This Afternoon,Sunny High 90
2019-06-15 21:39:30 EDT: KJ4PGD-9>WXBOT: w
2019-06-15 21:39:38 EDT: WXBOT>KJ4PGD-9: Norwood VA. Tonight,Mostly Clear Low 62
2019-06-15 23:56:22 EDT: ND6Q-1>WXBOT: 37882
2019-06-15 23:56:30 EDT: WXBOT>ND6Q-1: Townsend TN. Tonight,Partly Cloudy Low 66
2019-06-16 00:00:32 EDT: KB1WOH>WXBOT: East Hartford Connecticut
2019-06-16 00:00:37 EDT: KB1WOH>WXBOT: East Hartford Connecticut
2019-06-16 00:00:37 EDT: WXBOT>KB1WOH: 2 Miles ENE East Hartford CT. Overnight,Chance Showers 30% Low 64
2019-06-16 00:00:47 EDT: WXBOT>KB1WOH: 2 Miles ENE East Hartford CT. Overnight,Chance Showers 30% Low 64
< anterior
FAQ · Blog · Grupo de discusión · Conectando con aprs.fi · Emplazamientos AIS · Estado del servicio · Estadisticas de la base de datos · Publicidad en aprs.fi · Detalles técnicos · API · Cambiar log · Cambios previstos · Créditos y agradecimientos · Condiciones del Servicio · iPhone/iPad APRS